Hauptseite
METAR-TAF:

METAR-TAF

Flughäfen :

Châteauroux, Frankreich

Flughafen Châteauroux-Centre

Breite: 46-51N, Länge: 001-43E, Höhe: 160 m

Beobachtung

Neuester Wetterbericht von vor 25 Minuten, um 05:30 UTC
Wind 5 kt aus West/Südwest
Temperatur 5°C
Luftfeuchtigkeit 100%
Luftdruck 1023 hPa
Sichtweite 10 km oder mehr
keine Wolken unter 1500 m und keine Kumulonimbus oder Gewitterwolken

METAR: LFLX 260530Z AUTO 25005KT CAVOK 05/05 Q1023 NOSIG

Zeit: 07:55 (05:55 UTC)

Prognose

Neuester Wetterbericht von vor 55 Minuten, um 05:00 UTC
Gültige Prognose vom 26 um 06 UTC bis 27 um 12 UTC
Wind 5 kt aus West
Sichtweite 10 km oder mehr
keine Wolken unter 1500 m und keine Kumulonimbus oder Gewitterwolken
Wahrscheinlichkeit 40% :
Zeitweise
vom 27 um 10 UTC bis 27 um 12 UTC
Wind 15 kt aus West/Südwest, Böen bis zu 25 kt

TAF: LFLX 260500Z 2606/2712 27005KT CAVOK PROB40 TEMPO 2710/2712 25015G25KT

Wetterbeobachtungen und Prognosen von mehr als 4000 Flughäfen (METAR und TAF Bericht).

Die verfügbaren Stationen werden durch gelbe und rote Markierungen auf der Karte dargestellt.

Führen Sie die Maus auf sie, um den Namen der Station zu sehen.

Darauf klicken, um die Beobachtung von Wetterbeobachtungen und Prognosen zu sehen.

Um die Karte zu ändern : klicken Sie auf den grünen Tasten mit einem schwarzen Kreuz Zum Vergrößern, auf den grünen Button mit einem Gedankenstrich zu verkleinern, oder auf die grünen Pfeile für benachbarte Karten.


METAR-TAF: